DIRECCIÓN GENERAL DE AERONÁUTICA CIVIL
DIRECCIÓN METEOROLÓGICA DE CHILE
INFORMACIÓN METAR Y TAF

FIR PUERTO MONTT

Estación: SCQP
METAR SCQP 241100Z 09003KT 6000 -DZ FEW003 OVC005 09/09 Q1014=

TAF SCQP 241013Z 2412/2512 14004KT 9999 OVC012 TX15/2419Z TN09/2509Z BECMG 2414/2416 36010KT TEMPO 2420/2500 7000 -SHRA BKN030 BECMG 2504/2506 36015G28KT 5000 -RA BKN010 OVC030=

Estación: SCVD
METAR SCVD 232300Z 00000KT 9999 BKN019 OVC022 12/10 Q1015=

TAF SCVD 241017Z 2412/2500 00000KT 3000 BR OVC008 TX13/2418Z TN10/2500Z BECMG 2413/2415 35008KT 9999 NSW BKN020 BECMG 2417/2419 7000 -SHRA TEMPO 2421/2500 5000 -RA BKN015 OVC020=

Estación: SCJO
METAR SCJO 232200Z 00000KT 9999 OVC030 15/09 Q1015=

TAF SCJO 241018Z 2412/2500 00000KT 9999 OVC015 TN10/2412Z TX14/2419Z BECMG 2414/2416 36012KT=

Estación: SCTE
SPECI SCTE 241124Z 09004KT 9999 OVC011 10/09 Q1013 NOSIG=

TAF SCTE 241021Z 2412/2512 03004KT 9999 OVC015 TX14/2418Z TN08/2510Z BECMG 2416/2418 36015KT TEMPO 2418/2421 5000 -RA BECMG 2504/2506 35015G25KT 5000 -RA BKN015 OVC020=

Estación: SCPQ
METAR SCPQ 241100Z 36003KT 0900 R35/0800V1300U -SHRA FG VV001 08/08 Q1012=

TAF SCPQ 241023Z 2412/2500 VRB02KT 1200 BCFG BR OVC004 TN08/2412Z TX13/2419Z BECMG 2413/2415 03005KT 3000 BR BKN010 BECMG 2415/2417 35016KT 9999 BKN012 OVC030 TEMPO 2422/2500 4000 -RA BKN006 OVC015=

Estación: SCON
METAR SCON 241100Z AUTO 00000KT 8000 ///003 09/08 Q1013=

TAF SCON NIL=

Estación: SCTN
SPECI SCTN 241131Z 35003KT 330V030 0500 FG OVC001 08/08 Q1013=

TAF SCTN 241024Z 2412/2500 VRB02KT 9999 OVC010 TN09/2412Z TX13/2419Z BECMG 2414/2416 34007KT TEMPO 2420/2500 5000 -RA BKN012 OVC020=

Estación: SCFT
METAR SCFT 241100Z AUTO 00000KT 0900 R/////// FG 03/02 Q1014=

TAF SCFT NIL=

Estación: SCAP
SPECI SCAP 241139Z AUTO 00000KT 5000 // OVC002 06/06 Q1019=

TAF SCAP NIL=

Estación: SCMK
METAR SCMK 232100Z 24007KT 9999 BKN013 12/08 Q1014=

TAF SCMK 241033Z 2412/2500 04005KT 7000 BKN010 OVC030 TN09/2412Z TX12/2419Z BECMG 2414/2416 9999 SCT015 OVC050 BECMG 2416/2418 35015KT TEMPO 2421/2500 4000 -RA BKN010 OVC020=

Estación: SCAS
METAR SCAS 232000Z 24008KT 9999 FEW030 BKN040 13/08 Q1013=

TAF SCAS NIL=

Estación: SCCY
METAR SCCY 241100Z AUTO 05008KT CAVOK 05/03 Q1012=

TAF SCCY 241027Z 2412/2500 04005KT 9999 SCT020 BKN050 TX10/2418Z TN04/2500Z TEMPO 2419/2423 5000 -SHRA BKN030=

Estación: SCBA
METAR SCBA 241100Z AUTO 29005KT 250V330 CAVOK 05/02 Q1011=

TAF SCBA 241028Z 2412/2512 28005KT 9999 SCT010 BKN100 TX10/2419Z TN03/2510Z BECMG 2414/2416 SCT040 BKN100 TEMPO 2418/2422 8000 -SHRA BKN040 BECMG 2501/2503 BKN030 TEMPO 2506/2510 5000 -SHRA=

Estación: SCCC
METAR SCCC 232000Z 28016G26KT 9999 FEW040 SCT200 15/M01 Q1007=

TAF SCCC NIL=

Estación: SCHR
METAR SCHR 232000Z 00000KT 9999 BKN040 13/06 Q1005=

TAF COR SCHR 241115Z 2412/2500 VRB03KT 6000 BCFG -SHRA SCT006 BKN017 TN01/2412Z TX06/2418Z TEMPO 2412/2416 36005KT 3000 BCFG BKN004=


Volver